createdAt,value
2023-02-22T01:09:26.212Z,20.00
2023-02-22T01:11:59.267Z,20.10
2023-02-22T01:14:29.795Z,20.00
2023-02-22T01:17:02.203Z,19.90
2023-02-22T01:19:32.609Z,20.00
2023-02-22T01:22:03.000Z,20.30
2023-02-22T01:24:32.425Z,20.50
2023-02-22T01:27:03.050Z,20.50
2023-02-22T01:29:33.458Z,20.40
2023-02-22T01:32:04.498Z,20.30
2023-02-22T01:35:30.582Z,20.30
2023-02-22T01:38:00.069Z,20.50
2023-02-22T01:40:33.516Z,20.90
2023-02-22T01:43:04.382Z,21.00
2023-02-22T01:45:36.451Z,21.30
2023-02-22T01:48:11.594Z,21.40
2023-02-22T01:50:42.999Z,21.50
2023-02-22T01:53:13.718Z,21.40
2023-02-22T01:55:43.516Z,21.30
2023-02-22T01:58:19.461Z,21.30
2023-02-22T03:46:29.308Z,20.20
2023-02-22T03:49:12.757Z,20.20
2023-02-22T03:51:42.627Z,20.20
2023-02-22T03:54:17.916Z,20.10
2023-02-22T03:58:16.620Z,20.10
2023-02-22T04:00:26.977Z,20.00
2023-02-22T04:02:56.681Z,20.10
2023-02-22T04:05:27.601Z,20.10
2023-02-22T04:07:58.302Z,20.20
2023-02-22T04:10:32.137Z,20.00
2023-02-22T04:13:12.010Z,20.00
2023-02-22T04:16:04.492Z,20.20
2023-02-22T04:18:34.080Z,20.30
2023-02-22T04:21:06.370Z,20.40
2023-02-22T04:23:35.918Z,20.40
2023-02-22T04:26:14.490Z,20.40
2023-02-22T04:28:43.987Z,20.50
2023-02-22T04:31:16.185Z,20.70
2023-02-22T04:33:48.687Z,20.80
2023-02-22T04:36:18.230Z,20.90
2023-02-22T04:38:47.742Z,21.00
2023-02-22T04:41:19.146Z,20.90
2023-02-22T04:43:48.961Z,21.00
2023-02-22T04:46:41.808Z,21.00
2023-02-22T04:49:16.626Z,21.00
2023-02-22T04:51:48.902Z,21.10
2023-02-22T04:57:43.889Z,21.10
2023-02-22T05:00:13.657Z,21.10
2023-02-22T05:02:45.875Z,21.00
2023-02-22T05:05:27.676Z,20.90
2023-02-22T05:10:56.368Z,20.90
2023-02-22T05:13:25.859Z,20.80
2023-02-22T05:16:18.120Z,20.70
2023-02-22T05:18:51.651Z,20.70
2023-02-22T05:22:06.267Z,20.60
2023-02-22T05:24:36.705Z,20.60
2023-02-22T05:27:12.031Z,20.60
2023-02-22T05:33:37.340Z,20.80
2023-02-22T05:36:25.318Z,21.10
2023-02-22T05:39:20.303Z,21.20
2023-02-22T05:41:55.598Z,21.30
2023-02-22T05:45:54.820Z,21.10
2023-02-22T05:52:01.138Z,20.80
2023-02-22T05:54:57.477Z,20.70
2023-02-22T05:57:31.972Z,20.50
2023-02-22T06:26:23.349Z,20.00
2023-02-22T06:48:45.482Z,19.70
2023-02-22T06:54:10.405Z,19.70
2023-02-22T06:56:54.304Z,19.60
2023-02-22T06:59:33.205Z,19.50
2023-02-22T07:02:02.754Z,19.40
2023-02-22T07:04:32.514Z,19.30
2023-02-22T07:07:02.072Z,19.30
2023-02-22T07:09:38.612Z,19.30
2023-02-22T07:12:56.690Z,19.30
2023-02-22T07:15:26.978Z,19.30
2023-02-22T07:17:56.776Z,19.30
2023-02-22T07:20:26.844Z,19.10
2023-02-22T07:22:56.505Z,19.00
2023-02-22T07:25:25.965Z,19.00
2023-02-22T07:27:55.408Z,18.90
2023-02-22T07:30:29.661Z,18.90
2023-02-22T07:33:00.042Z,18.80
2023-02-22T07:35:30.746Z,18.80
2023-02-22T07:38:00.661Z,18.70
2023-02-22T07:40:30.931Z,18.70
2023-02-22T07:43:01.150Z,18.70
2023-02-22T07:45:31.889Z,18.60
2023-02-22T07:48:02.328Z,18.50
2023-02-22T07:50:32.974Z,18.50
2023-02-22T07:53:03.895Z,18.30
2023-02-22T08:00:36.089Z,18.20
2023-02-22T08:03:07.311Z,18.20
2023-02-22T08:05:37.797Z,18.10
2023-02-22T08:08:07.728Z,18.10
2023-02-22T08:10:37.694Z,17.90
2023-02-22T08:13:07.731Z,17.80
2023-02-22T08:15:39.037Z,17.80
2023-02-22T08:18:12.609Z,17.80
2023-02-22T08:20:42.987Z,17.80
2023-02-22T08:23:13.382Z,17.70
2023-02-22T08:25:43.192Z,17.70
2023-02-22T08:28:14.122Z,17.60
2023-02-22T08:30:46.528Z,17.50
2023-02-22T08:33:18.573Z,17.50
2023-02-22T08:35:51.345Z,17.50
2023-02-22T08:38:23.441Z,17.50
2023-02-22T08:40:54.684Z,17.40
2023-02-22T08:43:25.050Z,17.30
2023-02-22T08:45:57.214Z,17.30
2023-02-22T08:48:27.014Z,17.30
2023-02-22T08:50:57.597Z,17.30
2023-02-22T08:53:26.972Z,17.30
2023-02-22T08:55:57.216Z,17.30
2023-02-22T08:58:26.756Z,17.30
2023-02-22T09:07:23.146Z,17.30
2023-02-22T09:09:52.681Z,17.30
2023-02-22T09:12:23.648Z,17.30
2023-02-22T09:14:54.498Z,17.30
2023-02-22T09:17:24.238Z,17.30
2023-02-22T09:19:54.011Z,17.30
2023-02-22T09:22:23.358Z,17.30
2023-02-22T09:24:55.788Z,17.30
2023-02-22T09:27:25.253Z,17.20
2023-02-22T09:29:55.567Z,17.20
2023-02-22T09:32:26.450Z,17.20
2023-02-22T09:34:56.148Z,17.10
2023-02-22T09:37:25.514Z,17.10
2023-02-22T09:39:54.898Z,17.10
2023-02-22T09:42:36.561Z,17.00
2023-02-22T09:45:14.925Z,17.10
2023-02-22T09:47:48.460Z,17.00
2023-02-22T09:50:28.458Z,17.00
2023-02-22T09:53:10.550Z,17.00
2023-02-22T09:55:53.926Z,17.00
2023-02-22T09:58:26.476Z,17.00
2023-02-22T10:01:01.312Z,17.00
2023-02-22T10:03:46.314Z,17.00
2023-02-22T10:06:17.765Z,17.00
2023-02-22T10:08:47.697Z,17.00
2023-02-22T10:11:25.199Z,17.00
2023-02-22T10:13:57.983Z,17.00
2023-02-22T10:16:40.086Z,17.00
2023-02-22T10:19:31.142Z,17.00
2023-02-22T10:22:01.936Z,17.00
2023-02-22T10:24:40.194Z,17.00
2023-02-22T10:27:15.299Z,17.00
2023-02-22T10:29:46.579Z,16.90
2023-02-22T10:32:21.319Z,16.90
2023-02-22T10:34:56.129Z,16.80
2023-02-22T10:37:27.452Z,16.90
2023-02-22T10:40:19.070Z,16.80
2023-02-22T10:42:50.268Z,16.80
2023-02-22T10:45:34.239Z,16.80
2023-02-22T10:48:09.964Z,16.80
2023-02-22T10:50:42.797Z,16.80
2023-02-22T10:53:13.598Z,16.80
2023-02-22T10:56:01.356Z,16.80
2023-02-22T10:58:30.742Z,16.70
2023-02-22T11:01:00.164Z,16.70
2023-02-22T11:13:40.028Z,16.50
2023-02-22T11:16:23.071Z,16.40
2023-02-22T11:18:52.598Z,16.40
2023-02-22T11:21:25.414Z,16.50
2023-02-22T11:24:03.726Z,16.40
2023-02-22T11:26:39.385Z,16.40
2023-02-22T11:29:14.341Z,16.40
2023-02-22T11:31:48.919Z,16.30
2023-02-22T11:34:31.096Z,16.40
2023-02-22T11:37:18.369Z,16.30
2023-02-22T11:39:48.347Z,16.30
2023-02-22T11:42:31.222Z,16.30
2023-02-22T11:45:11.665Z,16.30
2023-02-22T11:48:10.121Z,16.30
2023-02-22T11:51:02.462Z,16.30
2023-02-22T11:53:32.373Z,16.20
2023-02-22T11:56:07.856Z,16.10
2023-02-22T11:58:47.322Z,16.10
2023-02-22T12:01:18.980Z,16.00
2023-02-22T12:03:48.383Z,16.00
2023-02-22T12:06:26.440Z,16.00
2023-02-22T12:09:15.951Z,15.90
2023-02-22T12:11:55.472Z,15.80
2023-02-22T12:28:24.715Z,15.60
2023-02-22T12:31:21.095Z,15.50
2023-02-22T12:34:17.611Z,15.50
2023-02-22T12:36:56.186Z,15.40
2023-02-22T12:39:52.200Z,15.40
2023-02-22T12:42:45.518Z,15.30
2023-02-22T12:45:19.892Z,15.30
2023-02-22T12:47:53.915Z,15.20
2023-02-22T12:50:30.657Z,15.20
2023-02-22T12:53:10.250Z,15.20
2023-02-22T12:55:47.977Z,15.10
2023-02-22T12:58:25.150Z,15.00
2023-02-22T13:00:54.896Z,15.00
2023-02-22T13:03:28.080Z,15.00
2023-02-22T13:06:03.214Z,14.90
2023-02-22T13:08:37.565Z,14.90
2023-02-22T13:11:37.229Z,14.90
2023-02-22T13:14:22.276Z,14.90
2023-02-22T13:17:05.156Z,14.80
2023-02-22T13:19:35.506Z,14.80
2023-02-22T13:22:29.204Z,14.80
2023-02-22T13:25:11.297Z,14.70
2023-02-22T16:02:40.942Z,13.20
2023-02-22T16:05:16.217Z,13.10
2023-02-22T16:07:48.187Z,13.10
2023-02-22T16:10:25.716Z,13.10
2023-02-22T16:13:25.640Z,13.00
2023-02-22T16:16:01.401Z,13.00
2023-02-22T16:18:38.576Z,12.90
2023-02-22T16:21:09.642Z,12.90
2023-02-22T16:23:52.821Z,12.80
2023-02-22T16:26:30.863Z,12.80
2023-02-22T16:29:05.031Z,12.80
2023-02-22T16:31:36.300Z,12.80
2023-02-22T16:34:06.871Z,12.80
2023-02-22T16:37:02.880Z,12.80
2023-02-22T16:39:34.100Z,12.70
2023-02-22T16:42:04.495Z,12.70
2023-02-22T16:44:34.288Z,12.70
2023-02-22T16:47:03.671Z,12.60
2023-02-22T16:49:34.237Z,12.50
2023-02-22T16:52:04.805Z,12.50
2023-02-22T16:54:38.814Z,12.50
2023-02-22T16:57:08.593Z,12.50
2023-02-22T16:59:42.091Z,12.40
2023-02-22T17:02:17.085Z,12.40
2023-02-22T17:04:50.946Z,12.40
2023-02-22T17:07:23.517Z,12.30
2023-02-22T17:09:53.912Z,12.30
2023-02-22T17:12:24.309Z,12.20
2023-02-22T17:14:53.643Z,12.20
2023-02-22T17:17:24.190Z,12.20
2023-02-22T17:19:53.944Z,12.20
2023-02-22T17:22:24.636Z,12.10
2023-02-22T17:24:54.378Z,12.10
2023-02-22T17:27:23.750Z,12.10
2023-02-22T17:29:53.083Z,12.10
2023-02-22T17:32:22.858Z,12.00
2023-02-22T17:34:52.204Z,12.00
2023-02-22T17:37:21.565Z,12.00
2023-02-22T17:39:51.927Z,12.00
2023-02-22T17:42:21.644Z,12.00
2023-02-22T17:44:51.980Z,12.10
2023-02-22T17:47:21.704Z,12.10
2023-02-22T17:49:51.982Z,12.10
2023-02-22T17:52:21.302Z,12.10
2023-02-22T17:54:50.628Z,12.10
2023-02-22T17:57:20.681Z,12.20
2023-02-22T17:59:50.070Z,12.20
2023-02-22T18:02:19.525Z,12.10
2023-02-22T18:04:49.358Z,12.10
2023-02-22T18:07:21.748Z,12.20
2023-02-22T18:09:51.154Z,12.20
2023-02-22T18:12:20.871Z,12.20
2023-02-22T18:14:50.270Z,12.20
2023-02-22T18:17:19.622Z,12.30
2023-02-22T18:19:49.973Z,12.30
2023-02-22T18:22:19.324Z,12.30
2023-02-22T18:24:49.849Z,12.30
2023-02-22T18:27:19.410Z,12.30
2023-02-22T18:29:48.913Z,12.30
2023-02-22T18:32:18.699Z,12.40
2023-02-22T18:34:48.061Z,12.40
2023-02-22T18:37:22.004Z,12.40
2023-02-22T18:39:52.597Z,12.40
2023-02-22T18:42:25.301Z,12.50
2023-02-22T18:44:55.920Z,12.40
2023-02-22T18:47:25.664Z,12.50
2023-02-22T18:49:55.050Z,12.50
2023-02-22T18:52:24.465Z,12.40
2023-02-22T18:54:53.864Z,12.40
2023-02-22T18:57:24.142Z,12.50
2023-02-22T18:59:53.476Z,12.50
2023-02-22T19:02:23.331Z,12.50
2023-02-22T19:04:52.734Z,12.50
2023-02-22T19:07:24.591Z,12.50
2023-02-22T19:09:54.506Z,12.60
2023-02-22T19:12:24.338Z,12.60
2023-02-22T19:14:53.694Z,12.60
2023-02-22T19:17:24.167Z,12.50
2023-02-22T19:19:53.568Z,12.40
2023-02-22T19:22:24.315Z,12.40
2023-02-22T19:24:55.675Z,12.40
2023-02-22T19:27:26.296Z,12.40
2023-02-22T19:29:56.025Z,12.40
2023-02-22T19:32:25.545Z,12.30
2023-02-22T19:37:37.278Z,12.30
2023-02-22T19:40:11.199Z,12.30
2023-02-22T19:42:40.693Z,12.30
2023-02-22T19:45:11.355Z,12.30
2023-02-22T19:47:41.163Z,12.30
2023-02-22T19:50:10.647Z,12.30
2023-02-22T19:52:40.705Z,12.30
2023-02-22T19:55:16.415Z,12.30
2023-02-22T19:57:48.162Z,12.30
2023-02-22T20:00:25.765Z,12.30
2023-02-22T20:03:14.764Z,12.30
2023-02-22T20:05:44.642Z,12.30
2023-02-22T20:08:14.376Z,12.30
2023-02-22T20:10:43.865Z,12.40
2023-02-22T20:13:16.850Z,12.40
2023-02-22T20:15:46.800Z,12.40
2023-02-22T20:18:16.439Z,12.40
2023-02-22T20:20:47.108Z,12.40
2023-02-22T20:23:16.688Z,12.50
2023-02-22T20:25:52.900Z,12.50
2023-02-22T20:28:23.273Z,12.50
2023-02-22T20:30:53.264Z,12.60
2023-02-22T20:33:24.670Z,12.60
2023-02-22T20:35:54.110Z,12.70
2023-02-22T20:38:23.860Z,12.70
2023-02-22T20:40:53.274Z,12.80
2023-02-22T20:43:22.904Z,12.80
2023-02-22T20:45:53.432Z,12.80
2023-02-22T20:48:22.921Z,12.80
2023-02-22T20:50:52.225Z,12.90
2023-02-22T20:53:21.563Z,13.00
2023-02-22T20:55:54.730Z,13.00
2023-02-22T20:58:24.512Z,13.00
2023-02-22T21:00:54.062Z,13.00
2023-02-22T21:03:23.608Z,13.10
2023-02-22T21:05:53.182Z,13.10
2023-02-22T21:08:22.886Z,13.10
2023-02-22T21:10:52.788Z,13.20
2023-02-22T21:13:23.124Z,13.30
2023-02-22T21:15:54.382Z,13.30
2023-02-22T21:18:25.125Z,13.30
2023-02-22T21:20:55.378Z,13.30
2023-02-22T21:23:25.750Z,13.30
2023-02-22T21:25:55.908Z,13.30
2023-02-22T21:28:29.778Z,13.30
2023-02-22T21:31:13.124Z,13.40
2023-02-22T21:33:43.515Z,13.50
2023-02-22T21:36:17.458Z,13.60
2023-02-22T21:38:47.707Z,13.60
2023-02-22T21:41:19.317Z,13.60
2023-02-22T21:43:53.027Z,13.70
2023-02-22T21:46:22.401Z,13.80
2023-02-22T21:48:51.752Z,13.80
2023-02-22T21:51:23.387Z,13.90
2023-02-22T21:53:53.991Z,14.00
2023-02-22T21:56:33.933Z,14.10
2023-02-22T21:59:05.091Z,14.10
2023-02-22T22:01:35.932Z,14.20
2023-02-22T22:04:06.214Z,14.40
2023-02-22T22:06:36.286Z,14.40
2023-02-22T22:09:19.747Z,14.50
2023-02-22T22:11:53.538Z,14.50
2023-02-22T22:14:24.977Z,14.60
2023-02-22T22:16:56.540Z,14.60
2023-02-22T22:19:26.336Z,14.70
2023-02-22T22:21:56.091Z,14.70
2023-02-22T22:24:26.083Z,14.70
2023-02-22T22:26:58.476Z,14.80
2023-02-22T22:29:31.467Z,14.80
2023-02-22T22:32:06.330Z,14.80
2023-02-22T22:34:36.628Z,14.90
2023-02-22T22:37:06.230Z,14.90
2023-02-22T22:39:35.669Z,15.00
2023-02-22T22:42:05.337Z,15.00
2023-02-22T22:44:43.456Z,15.00
2023-02-22T22:47:15.904Z,15.10
2023-02-22T22:49:45.352Z,15.10
2023-02-22T22:52:15.664Z,15.20
2023-02-22T22:54:45.554Z,15.30
2023-02-22T22:57:15.236Z,15.40
2023-02-22T22:59:44.743Z,15.40
2023-02-22T23:02:14.179Z,15.50
2023-02-22T23:04:43.725Z,15.60
2023-02-22T23:07:13.185Z,15.60
2023-02-22T23:09:43.653Z,15.70
2023-02-22T23:12:29.609Z,15.70
2023-02-22T23:15:02.834Z,15.70
2023-02-22T23:17:43.118Z,15.70
2023-02-22T23:20:15.486Z,15.80
2023-02-22T23:22:48.881Z,15.80
2023-02-22T23:25:22.112Z,15.80
2023-02-22T23:27:51.635Z,15.90
2023-02-22T23:30:21.221Z,16.00
2023-02-22T23:32:51.138Z,16.10
2023-02-22T23:35:23.341Z,16.10
2023-02-22T23:37:55.282Z,16.10
2023-02-22T23:40:27.553Z,16.20
2023-02-22T23:42:57.254Z,16.20
2023-02-22T23:45:29.492Z,16.30
2023-02-22T23:48:07.466Z,16.30
2023-02-22T23:55:29.617Z,16.40
